sensor_id;sensor_type;location;lat;lon;timestamp;pressure;altitude;pressure_sealevel;temperature;humidity
62111;BME280;48102;47.526;19.072;2023-04-26T03:41:03;99907.81;;;6.83;100.00
62111;BME280;48102;47.526;19.072;2023-04-26T03:44:07;99907.81;;;6.83;100.00
62111;BME280;48102;47.526;19.072;2023-04-26T03:47:09;99903.78;;;6.32;100.00
62111;BME280;48102;47.526;19.072;2023-04-26T03:50:13;99916.19;;;6.26;100.00
62111;BME280;48102;47.526;19.072;2023-04-26T03:53:15;99907.53;;;6.24;100.00
62111;BME280;48102;47.526;19.072;2023-04-26T03:56:18;99910.94;;;6.26;100.00
62111;BME280;48102;47.526;19.072;2023-04-26T03:59:22;99920.50;;;6.27;100.00
62111;BME280;48102;47.526;19.072;2023-04-26T04:02:25;99918.84;;;6.25;100.00
62111;BME280;48102;47.526;19.072;2023-04-26T04:05:29;99926.47;;;6.31;100.00
62111;BME280;48102;47.526;19.072;2023-04-26T04:08:32;99927.97;;;6.37;100.00
62111;BME280;48102;47.526;19.072;2023-04-26T04:11:35;99934.44;;;6.50;100.00
62111;BME280;48102;47.526;19.072;2023-04-26T04:14:38;99945.56;;;6.55;100.00
62111;BME280;48102;47.526;19.072;2023-04-26T04:17:41;99940.81;;;6.65;100.00
62111;BME280;48102;47.526;19.072;2023-04-26T04:20:45;99949.38;;;6.70;100.00
62111;BME280;48102;47.526;19.072;2023-04-26T04:23:48;99942.38;;;6.91;100.00
62111;BME280;48102;47.526;19.072;2023-04-26T04:26:51;99932.44;;;6.99;100.00
62111;BME280;48102;47.526;19.072;2023-04-26T04:29:54;99927.09;;;7.02;100.00
62111;BME280;48102;47.526;19.072;2023-04-26T04:32:58;99950.91;;;7.16;100.00
62111;BME280;48102;47.526;19.072;2023-04-26T04:36:02;99949.03;;;7.20;100.00
62111;BME280;48102;47.526;19.072;2023-04-26T04:39:04;99960.16;;;7.25;100.00
62111;BME280;48102;47.526;19.072;2023-04-26T04:42:14;99963.97;;;7.38;100.00
62111;BME280;48102;47.526;19.072;2023-04-26T04:45:17;99973.69;;;7.57;100.00
62111;BME280;48102;47.526;19.072;2023-04-26T04:48:29;99976.31;;;7.57;100.00
62111;BME280;48102;47.526;19.072;2023-04-26T04:51:31;99971.22;;;7.72;100.00
62111;BME280;48102;47.526;19.072;2023-04-26T04:54:34;99983.38;;;7.75;100.00
62111;BME280;48102;47.526;19.072;2023-04-26T04:57:37;99985.22;;;7.73;100.00
62111;BME280;48102;47.526;19.072;2023-04-26T05:00:44;99987.34;;;7.84;100.00
62111;BME280;48102;47.526;19.072;2023-04-26T05:03:49;99991.13;;;7.97;100.00
62111;BME280;48102;47.526;19.072;2023-04-26T05:06:52;100004.84;;;8.03;100.00
62111;BME280;48102;47.526;19.072;2023-04-26T05:09:57;99997.66;;;8.07;100.00
62111;BME280;48102;47.526;19.072;2023-04-26T05:13:00;100010.66;;;8.10;100.00
62111;BME280;48102;47.526;19.072;2023-04-26T05:16:03;100014.94;;;8.13;100.00
62111;BME280;48102;47.526;19.072;2023-04-26T05:19:06;100012.66;;;8.24;100.00
62111;BME280;48102;47.526;19.072;2023-04-26T05:22:11;100014.72;;;8.36;100.00
62111;BME280;48102;47.526;19.072;2023-04-26T05:25:22;100030.56;;;8.35;100.00
62111;BME280;48102;47.526;19.072;2023-04-26T05:28:26;100020.81;;;8.38;100.00
62111;BME280;48102;47.526;19.072;2023-04-26T05:31:31;100013.03;;;8.54;100.00
62111;BME280;48102;47.526;19.072;2023-04-26T05:34:34;100024.06;;;8.62;100.00
62111;BME280;48102;47.526;19.072;2023-04-26T05:37:38;100026.03;;;8.76;100.00
62111;BME280;48102;47.526;19.072;2023-04-26T05:40:42;100026.91;;;8.76;100.00
62111;BME280;48102;47.526;19.072;2023-04-26T05:43:46;100032.91;;;8.78;100.00
62111;BME280;48102;47.526;19.072;2023-04-26T05:46:49;100024.38;;;8.92;100.00
62111;BME280;48102;47.526;19.072;2023-04-26T05:49:52;100034.53;;;9.00;100.00
62111;BME280;48102;47.526;19.072;2023-04-26T05:52:55;100036.31;;;8.99;100.00
62111;BME280;48102;47.526;19.072;2023-04-26T05:55:58;100041.66;;;9.15;100.00
62111;BME280;48102;47.526;19.072;2023-04-26T05:59:00;100051.25;;;9.16;94.50
62111;BME280;48102;47.526;19.072;2023-04-26T06:02:05;100053.34;;;9.27;93.99
62111;BME280;48102;47.526;19.072;2023-04-26T06:05:08;100053.69;;;9.38;93.60
62111;BME280;48102;47.526;19.072;2023-04-26T06:08:12;100053.56;;;9.22;91.15
62111;BME280;48102;47.526;19.072;2023-04-26T06:11:15;100053.75;;;9.37;90.69
62111;BME280;48102;47.526;19.072;2023-04-26T06:14:18;100063.59;;;9.50;95.21
62111;BME280;48102;47.526;19.072;2023-04-26T06:17:32;100057.50;;;9.67;88.85
62111;BME280;48102;47.526;19.072;2023-04-26T06:20:35;100068.88;;;9.68;86.50
62111;BME280;48102;47.526;19.072;2023-04-26T06:23:40;100070.19;;;9.76;85.39
62111;BME280;48102;47.526;19.072;2023-04-26T06:26:43;100071.78;;;9.96;86.65
62111;BME280;48102;47.526;19.072;2023-04-26T06:29:46;100076.88;;;10.17;87.32
62111;BME280;48102;47.526;19.072;2023-04-26T06:32:50;100070.06;;;10.30;85.31
62111;BME280;48102;47.526;19.072;2023-04-26T06:35:53;100070.59;;;10.37;80.31
62111;BME280;48102;47.526;19.072;2023-04-26T06:38:55;100070.09;;;10.46;78.72
62111;BME280;48102;47.526;19.072;2023-04-26T06:42:02;100064.41;;;10.53;75.44
62111;BME280;48102;47.526;19.072;2023-04-26T06:45:07;100068.75;;;10.54;78.02
62111;BME280;48102;47.526;19.072;2023-04-26T06:48:10;100067.41;;;10.63;71.28
62111;BME280;48102;47.526;19.072;2023-04-26T06:51:13;100079.03;;;10.75;73.06
62111;BME280;48102;47.526;19.072;2023-04-26T06:54:16;100074.13;;;10.85;71.90
62111;BME280;48102;47.526;19.072;2023-04-26T06:57:19;100071.66;;;10.97;70.49
62111;BME280;48102;47.526;19.072;2023-04-26T07:00:22;100081.84;;;11.03;71.98
62111;BME280;48102;47.526;19.072;2023-04-26T07:03:25;100076.84;;;10.99;64.30
62111;BME280;48102;47.526;19.072;2023-04-26T07:06:29;100073.28;;;11.16;66.01
62111;BME280;48102;47.526;19.072;2023-04-26T07:09:35;100074.00;;;11.34;64.61
62111;BME280;48102;47.526;19.072;2023-04-26T07:12:38;100081.09;;;11.63;61.60
62111;BME280;48102;47.526;19.072;2023-04-26T07:15:41;100073.75;;;11.98;60.90
62111;BME280;48102;47.526;19.072;2023-04-26T07:18:44;100074.16;;;12.21;58.65
62111;BME280;48102;47.526;19.072;2023-04-26T07:21:49;100081.81;;;12.40;55.28
62111;BME280;48102;47.526;19.072;2023-04-26T07:24:53;100082.66;;;12.26;51.11
62111;BME280;48102;47.526;19.072;2023-04-26T07:27:55;100068.50;;;12.55;53.92
62111;BME280;48102;47.526;19.072;2023-04-26T07:31:00;100072.91;;;12.69;53.60
62111;BME280;48102;47.526;19.072;2023-04-26T07:34:03;100084.44;;;12.68;48.32
62111;BME280;48102;47.526;19.072;2023-04-26T07:37:05;100088.44;;;12.61;46.96
62111;BME280;48102;47.526;19.072;2023-04-26T07:40:09;100100.41;;;12.67;46.69
62111;BME280;48102;47.526;19.072;2023-04-26T07:43:13;100103.97;;;12.80;46.16
62111;BME280;48102;47.526;19.072;2023-04-26T07:46:17;100101.63;;;13.17;46.18
62111;BME280;48102;47.526;19.072;2023-04-26T07:49:20;100106.31;;;13.40;45.20
62111;BME280;48102;47.526;19.072;2023-04-26T07:52:23;100111.44;;;13.43;45.52
62111;BME280;48102;47.526;19.072;2023-04-26T07:55:26;100111.50;;;13.42;44.35
62111;BME280;48102;47.526;19.072;2023-04-26T07:58:28;100110.03;;;13.90;45.36
62111;BME280;48102;47.526;19.072;2023-04-26T08:01:31;100114.94;;;13.96;43.52
62111;BME280;48102;47.526;19.072;2023-04-26T08:04:35;100125.25;;;14.14;43.54
62111;BME280;48102;47.526;19.072;2023-04-26T08:07:38;100122.06;;;14.09;44.39
62111;BME280;48102;47.526;19.072;2023-04-26T08:10:41;100129.63;;;14.40;44.01
62111;BME280;48102;47.526;19.072;2023-04-26T08:13:44;100138.34;;;13.90;44.16
62111;BME280;48102;47.526;19.072;2023-04-26T08:16:47;100125.37;;;13.72;43.63
62111;BME280;48102;47.526;19.072;2023-04-26T08:19:50;100127.34;;;13.56;42.40
62111;BME280;48102;47.526;19.072;2023-04-26T08:22:57;100135.53;;;13.66;44.30
62111;BME280;48102;47.526;19.072;2023-04-26T08:25:59;100141.22;;;13.60;43.64
62111;BME280;48102;47.526;19.072;2023-04-26T08:29:02;100146.22;;;13.64;42.06
62111;BME280;48102;47.526;19.072;2023-04-26T08:32:05;100137.12;;;13.41;43.10
62111;BME280;48102;47.526;19.072;2023-04-26T08:35:09;100135.28;;;13.29;43.83
62111;BME280;48102;47.526;19.072;2023-04-26T08:38:12;100135.03;;;13.46;43.85
62111;BME280;48102;47.526;19.072;2023-04-26T08:41:20;100150.50;;;13.11;43.70
62111;BME280;48102;47.526;19.072;2023-04-26T08:44:24;100153.13;;;13.25;42.25
62111;BME280;48102;47.526;19.072;2023-04-26T08:47:29;100144.53;;;13.22;42.63
62111;BME280;48102;47.526;19.072;2023-04-26T08:50:38;100148.87;;;13.37;43.64
62111;BME280;48102;47.526;19.072;2023-04-26T08:53:42;100155.59;;;13.43;43.48
62111;BME280;48102;47.526;19.072;2023-04-26T08:56:46;100166.16;;;13.43;44.87
62111;BME280;48102;47.526;19.072;2023-04-26T08:59:49;100159.66;;;13.61;44.06
62111;BME280;48102;47.526;19.072;2023-04-26T09:02:54;100162.59;;;13.84;41.42
62111;BME280;48102;47.526;19.072;2023-04-26T09:05:57;100159.37;;;13.66;41.33
62111;BME280;48102;47.526;19.072;2023-04-26T09:09:08;100171.59;;;13.81;41.47
62111;BME280;48102;47.526;19.072;2023-04-26T09:12:31;100159.25;;;13.67;41.27
62111;BME280;48102;47.526;19.072;2023-04-26T09:15:34;100161.16;;;13.92;41.67
62111;BME280;48102;47.526;19.072;2023-04-26T09:18:46;100162.00;;;13.93;40.93
62111;BME280;48102;47.526;19.072;2023-04-26T09:21:48;100156.44;;;14.23;41.01
62111;BME280;48102;47.526;19.072;2023-04-26T09:24:51;100162.44;;;14.52;40.92
62111;BME280;48102;47.526;19.072;2023-04-26T09:27:54;100155.19;;;14.67;44.41
62111;BME280;48102;47.526;19.072;2023-04-26T09:30:57;100158.38;;;14.85;40.30
62111;BME280;48102;47.526;19.072;2023-04-26T09:34:00;100158.78;;;15.04;47.16
62111;BME280;48102;47.526;19.072;2023-04-26T09:37:03;100156.97;;;15.04;42.75
62111;BME280;48102;47.526;19.072;2023-04-26T09:40:17;100161.84;;;14.85;39.38
62111;BME280;48102;47.526;19.072;2023-04-26T09:43:21;100159.56;;;15.54;41.10
62111;BME280;48102;47.526;19.072;2023-04-26T09:46:35;100155.87;;;15.80;38.55
62111;BME280;48102;47.526;19.072;2023-04-26T09:49:46;100154.69;;;15.85;35.63
62111;BME280;48102;47.526;19.072;2023-04-26T09:52:50;100161.38;;;16.01;37.34
62111;BME280;48102;47.526;19.072;2023-04-26T09:55:53;100153.00;;;16.30;39.22
62111;BME280;48102;47.526;19.072;2023-04-26T09:58:58;100155.53;;;15.85;38.14
62111;BME280;48102;47.526;19.072;2023-04-26T10:02:02;100165.19;;;15.49;37.38
62111;BME280;48102;47.526;19.072;2023-04-26T10:05:06;100153.03;;;15.71;37.36
62111;BME280;48102;47.526;19.072;2023-04-26T10:08:09;100154.44;;;15.88;36.40
62111;BME280;48102;47.526;19.072;2023-04-26T10:11:12;100153.94;;;15.83;37.22
62111;BME280;48102;47.526;19.072;2023-04-26T10:14:15;100157.62;;;16.39;35.85
62111;BME280;48102;47.526;19.072;2023-04-26T10:17:18;100148.91;;;17.38;36.29
62111;BME280;48102;47.526;19.072;2023-04-26T10:20:23;100152.56;;;17.80;32.97
62111;BME280;48102;47.526;19.072;2023-04-26T10:23:28;100153.38;;;17.49;35.15
62111;BME280;48102;47.526;19.072;2023-04-26T10:26:52;100148.53;;;17.54;32.05
62111;BME280;48102;47.526;19.072;2023-04-26T10:36:13;100162.91;;;18.27;34.08
62111;BME280;48102;47.526;19.072;2023-04-26T10:39:29;100157.56;;;17.74;33.14
62111;BME280;48102;47.526;19.072;2023-04-26T10:42:32;100143.34;;;17.73;31.47
62111;BME280;48102;47.526;19.072;2023-04-26T10:45:35;100152.69;;;18.32;32.07
62111;BME280;48102;47.526;19.072;2023-04-26T10:48:39;100152.97;;;18.60;31.58
62111;BME280;48102;47.526;19.072;2023-04-26T10:52:14;100143.84;;;17.78;31.17
62111;BME280;48102;47.526;19.072;2023-04-26T10:55:37;100159.28;;;16.98;31.38
62111;BME280;48102;47.526;19.072;2023-04-26T10:58:41;100160.19;;;17.30;32.53
62111;BME280;48102;47.526;19.072;2023-04-26T11:01:48;100162.84;;;17.85;35.93
62111;BME280;48102;47.526;19.072;2023-04-26T11:04:51;100161.25;;;17.94;32.76
62111;BME280;48102;47.526;19.072;2023-04-26T11:11:11;100165.47;;;19.11;33.62
62111;BME280;48102;47.526;19.072;2023-04-26T11:14:14;100152.22;;;18.06;30.23
62111;BME280;48102;47.526;19.072;2023-04-26T11:17:17;100156.13;;;17.59;31.60
62111;BME280;48102;47.526;19.072;2023-04-26T11:20:22;100160.31;;;17.40;32.30
62111;BME280;48102;47.526;19.072;2023-04-26T11:23:27;100149.34;;;17.98;32.14
62111;BME280;48102;47.526;19.072;2023-04-26T11:26:32;100153.53;;;18.12;30.64
62111;BME280;48102;47.526;19.072;2023-04-26T11:29:38;100156.13;;;18.44;35.78
62111;BME280;48102;47.526;19.072;2023-04-26T11:32:41;100162.72;;;17.87;32.13
62111;BME280;48102;47.526;19.072;2023-04-26T11:35:45;100168.19;;;17.30;34.86
62111;BME280;48102;47.526;19.072;2023-04-26T11:38:49;100165.28;;;17.22;34.40
62111;BME280;48102;47.526;19.072;2023-04-26T11:42:09;100172.59;;;17.64;33.89
62111;BME280;48102;47.526;19.072;2023-04-26T11:45:16;100161.84;;;17.97;33.96
62111;BME280;48102;47.526;19.072;2023-04-26T11:48:20;100170.41;;;18.64;31.07
62111;BME280;48102;47.526;19.072;2023-04-26T11:51:24;100165.78;;;19.17;30.56
62111;BME280;48102;47.526;19.072;2023-04-26T11:54:27;100161.25;;;20.16;31.68
62111;BME280;48102;47.526;19.072;2023-04-26T11:57:32;100159.37;;;21.30;29.89
62111;BME280;48102;47.526;19.072;2023-04-26T12:00:35;100158.47;;;22.02;28.79
62111;BME280;48102;47.526;19.072;2023-04-26T12:03:38;100162.78;;;20.95;29.31
62111;BME280;48102;47.526;19.072;2023-04-26T12:06:43;100169.31;;;19.27;28.16
62111;BME280;48102;47.526;19.072;2023-04-26T12:09:46;100178.56;;;19.14;32.20
62111;BME280;48102;47.526;19.072;2023-04-26T12:12:50;100171.25;;;18.85;29.81
62111;BME280;48102;47.526;19.072;2023-04-26T12:15:53;100159.66;;;19.55;29.58
62111;BME280;48102;47.526;19.072;2023-04-26T12:18:56;100169.84;;;21.51;27.70
62111;BME280;48102;47.526;19.072;2023-04-26T12:22:00;100157.84;;;21.73;29.03
62111;BME280;48102;47.526;19.072;2023-04-26T12:25:04;100174.50;;;19.98;29.71
62111;BME280;48102;47.526;19.072;2023-04-26T12:28:10;100180.31;;;19.03;30.95
62111;BME280;48102;47.526;19.072;2023-04-26T12:31:15;100168.25;;;17.95;31.82
62111;BME280;48102;47.526;19.072;2023-04-26T12:34:18;100172.66;;;17.73;31.16
62111;BME280;48102;47.526;19.072;2023-04-26T12:37:21;100171.97;;;18.03;33.99
62111;BME280;48102;47.526;19.072;2023-04-26T12:40:24;100167.97;;;18.30;33.88
62111;BME280;48102;47.526;19.072;2023-04-26T12:43:27;100183.75;;;20.33;29.55
62111;BME280;48102;47.526;19.072;2023-04-26T12:46:30;100181.03;;;26.42;24.38
62111;BME280;48102;47.526;19.072;2023-04-26T12:49:33;100173.25;;;26.47;20.82
62111;BME280;48102;47.526;19.072;2023-04-26T12:52:36;100178.25;;;23.82;24.64
62111;BME280;48102;47.526;19.072;2023-04-26T12:55:38;100177.28;;;21.29;27.25
62111;BME280;48102;47.526;19.072;2023-04-26T12:58:42;100182.53;;;20.84;30.97
62111;BME280;48102;47.526;19.072;2023-04-26T13:01:44;100174.00;;;21.08;28.72
62111;BME280;48102;47.526;19.072;2023-04-26T13:04:47;100176.94;;;25.86;22.75
62111;BME280;48102;47.526;19.072;2023-04-26T13:07:50;100186.47;;;30.12;20.37
62111;BME280;48102;47.526;19.072;2023-04-26T13:10:53;100188.63;;;30.36;19.06
62111;BME280;48102;47.526;19.072;2023-04-26T13:13:56;100187.09;;;29.33;19.58
62111;BME280;48102;47.526;19.072;2023-04-26T13:17:00;100192.63;;;25.20;22.31
62111;BME280;48102;47.526;19.072;2023-04-26T13:20:04;100195.75;;;23.94;22.49
62111;BME280;48102;47.526;19.072;2023-04-26T13:23:09;100191.06;;;25.96;20.97
62111;BME280;48102;47.526;19.072;2023-04-26T13:26:13;100187.28;;;25.43;21.75
62111;BME280;48102;47.526;19.072;2023-04-26T13:29:17;100187.09;;;25.52;25.17
62111;BME280;48102;47.526;19.072;2023-04-26T13:32:19;100193.37;;;28.21;21.63
62111;BME280;48102;47.526;19.072;2023-04-26T13:35:24;100200.75;;;33.15;17.46
62111;BME280;48102;47.526;19.072;2023-04-26T13:38:29;100195.31;;;33.52;15.45
62111;BME280;48102;47.526;19.072;2023-04-26T13:41:35;100200.66;;;35.76;14.22
62111;BME280;48102;47.526;19.072;2023-04-26T13:44:38;100196.22;;;34.06;14.36
62111;BME280;48102;47.526;19.072;2023-04-26T13:47:41;100194.41;;;29.39;17.93
62111;BME280;48102;47.526;19.072;2023-04-26T13:50:44;100197.28;;;24.70;21.53
62111;BME280;48102;47.526;19.072;2023-04-26T13:53:47;100190.97;;;21.82;26.07
62111;BME280;48102;47.526;19.072;2023-04-26T13:56:51;100198.28;;;20.40;28.57
62111;BME280;48102;47.526;19.072;2023-04-26T13:59:54;100199.97;;;19.33;29.35
62111;BME280;48102;47.526;19.072;2023-04-26T14:02:57;100203.31;;;18.22;30.42
62111;BME280;48102;47.526;19.072;2023-04-26T14:06:00;100210.13;;;18.36;32.50
62111;BME280;48102;47.526;19.072;2023-04-26T14:09:05;100215.28;;;22.16;28.30
62111;BME280;48102;47.526;19.072;2023-04-26T14:12:08;100212.72;;;28.95;20.44
62111;BME280;48102;47.526;19.072;2023-04-26T14:15:11;100219.06;;;33.51;14.83
62111;BME280;48102;47.526;19.072;2023-04-26T14:18:15;100210.31;;;31.67;16.90
62111;BME280;48102;47.526;19.072;2023-04-26T14:21:19;100206.41;;;28.88;19.62
62111;BME280;48102;47.526;19.072;2023-04-26T14:24:22;100200.69;;;25.28;22.03
62111;BME280;48102;47.526;19.072;2023-04-26T14:27:24;100201.53;;;22.19;25.53
62111;BME280;48102;47.526;19.072;2023-04-26T14:30:27;100205.91;;;19.96;27.48
62111;BME280;48102;47.526;19.072;2023-04-26T14:33:30;100211.25;;;18.96;29.54
62111;BME280;48102;47.526;19.072;2023-04-26T14:36:33;100207.88;;;17.99;29.69
62111;BME280;48102;47.526;19.072;2023-04-26T14:39:36;100207.31;;;19.41;26.52
62111;BME280;48102;47.526;19.072;2023-04-26T14:42:41;100213.84;;;20.84;24.75
62111;BME280;48102;47.526;19.072;2023-04-26T14:45:47;100216.37;;;19.19;26.89
62111;BME280;48102;47.526;19.072;2023-04-26T14:48:52;100216.09;;;18.08;27.68
62111;BME280;48102;47.526;19.072;2023-04-26T14:51:56;100215.16;;;16.87;32.10
62111;BME280;48102;47.526;19.072;2023-04-26T14:54:59;100228.38;;;16.18;33.40
62111;BME280;48102;47.526;19.072;2023-04-26T14:58:01;100221.59;;;15.66;35.14
62111;BME280;48102;47.526;19.072;2023-04-26T15:01:04;100226.75;;;16.39;33.23
62111;BME280;48102;47.526;19.072;2023-04-26T15:04:07;100222.63;;;19.79;30.41
62111;BME280;48102;47.526;19.072;2023-04-26T15:07:11;100222.44;;;26.20;21.74
62111;BME280;48102;47.526;19.072;2023-04-26T15:10:30;100228.78;;;28.62;19.62
62111;BME280;48102;47.526;19.072;2023-04-26T15:13:33;100232.84;;;32.76;17.15
62111;BME280;48102;47.526;19.072;2023-04-26T15:16:36;100232.88;;;31.81;15.57
62111;BME280;48102;47.526;19.072;2023-04-26T15:19:38;100247.09;;;27.30;19.71
62111;BME280;48102;47.526;19.072;2023-04-26T15:22:42;100239.81;;;23.43;23.75
62111;BME280;48102;47.526;19.072;2023-04-26T15:25:44;100238.25;;;19.93;27.91
62111;BME280;48102;47.526;19.072;2023-04-26T15:28:48;100250.34;;;18.23;30.25
62111;BME280;48102;47.526;19.072;2023-04-26T15:31:51;100239.25;;;16.85;32.12
62111;BME280;48102;47.526;19.072;2023-04-26T15:34:54;100237.66;;;15.51;32.04
